Time;durP1;ratioP1;P1;durP2;ratioP2;P2;SDS_P1;SDS_P2;PMS_P1;PMS_P2;Temp;Humidity;BMP_temperature;BMP_pressure;BME280_temperature;BME280_humidity;BME280_pressure;Samples;Min_cycle;Max_cycle;Signal;HPM_P1;HPM_P2
2022/01/10 00:00:52;;;;;;;114.07;47.67;;;2.00;64.20;;;;;;5048373;28;20040;-69
2022/01/10 00:03:19;;;;;;;104.32;46.67;;;2.00;64.20;;;;;;5048301;28;20036;-68
2022/01/10 00:05:45;;;;;;;110.30;49.33;;;2.00;64.20;;;;;;5065486;28;20320;-68
2022/01/10 00:08:19;;;;;;;109.43;47.05;;;2.00;64.40;;;;;;5048295;28;20440;-69
2022/01/10 00:11:08;;;;;;;109.03;45.58;;;2.10;64.50;;;;;;5049998;28;20370;-71
2022/01/10 00:13:38;;;;;;;117.07;49.85;;;2.10;64.40;;;;;;5041703;28;20041;-68
2022/01/10 00:16:06;;;;;;;121.32;56.08;;;2.10;64.50;;;;;;5049993;28;20037;-68
2022/01/10 00:18:32;;;;;;;113.78;50.20;;;2.10;64.50;;;;;;5034213;28;20033;-68
2022/01/10 00:21:06;;;;;;;105.20;48.33;;;2.10;64.50;;;;;;5064608;28;20044;-67
2022/01/10 00:23:40;;;;;;;102.57;43.28;;;2.00;64.50;;;;;;5069949;28;20041;-68
2022/01/10 00:26:10;;;;;;;91.80;39.40;;;2.00;64.50;;;;;;5056136;28;20040;-68
2022/01/10 00:28:56;;;;;;;83.88;38.33;;;2.00;64.70;;;;;;5069942;28;20066;-68
2022/01/10 00:31:26;;;;;;;77.32;34.53;;;2.00;64.80;;;;;;5050062;28;20044;-67
2022/01/10 00:33:55;;;;;;;66.93;32.22;;;2.00;64.90;;;;;;5048975;28;20505;-68
2022/01/10 00:36:25;;;;;;;70.68;32.40;;;2.00;65.00;;;;;;5064321;28;20051;-68
2022/01/10 00:38:58;;;;;;;63.65;31.35;;;2.00;65.00;;;;;;5052815;28;20060;-68
2022/01/10 00:41:28;;;;;;;62.20;29.05;;;2.00;65.20;;;;;;5036542;28;20098;-68
2022/01/10 00:43:54;;;;;;;66.43;30.88;;;2.00;65.20;;;;;;5070024;28;20036;-67
2022/01/10 00:46:28;;;;;;;103.20;40.67;;;2.00;65.10;;;;;;5052006;28;20493;-68
2022/01/10 00:48:55;;;;;;;87.57;39.88;;;2.00;64.90;;;;;;5051871;28;20493;-68
2022/01/10 00:51:22;;;;;;;91.30;40.40;;;2.00;65.10;;;;;;5069698;28;20076;-70
2022/01/10 00:53:52;;;;;;;78.68;37.15;;;2.00;65.10;;;;;;5053242;28;20033;-67
2022/01/10 00:56:24;;;;;;;57.80;28.33;;;2.00;65.10;;;;;;5048126;28;20512;-68
2022/01/10 00:58:57;;;;;;;55.17;25.55;;;2.00;65.10;;;;;;5070086;28;20151;-68
2022/01/10 01:01:26;;;;;;;50.85;24.35;;;2.00;64.80;;;;;;5068573;28;20040;-67
2022/01/10 01:03:55;;;;;;;53.22;24.52;;;2.00;65.40;;;;;;5069488;28;20037;-69
2022/01/10 01:06:26;;;;;;;54.03;26.23;;;1.90;65.40;;;;;;5067809;28;20055;-68
2022/01/10 01:09:06;;;;;;;55.35;26.05;;;1.90;65.40;;;;;;5051591;28;20552;-68
2022/01/10 01:12:04;;;;;;;53.20;25.92;;;1.90;65.60;;;;;;5052164;28;20044;-68
2022/01/10 01:25:20;;;;;;;53.30;25.25;;;1.90;65.40;;;;;;5049026;28;20043;-68
2022/01/10 01:27:54;;;;;;;57.53;27.40;;;1.90;65.70;;;;;;5047971;28;20090;-68
2022/01/10 01:30:34;;;;;;;55.88;27.70;;;1.90;65.70;;;;;;5048215;28;20382;-68
2022/01/10 01:33:13;;;;;;;62.63;28.20;;;1.90;65.70;;;;;;5046340;28;20045;-68
2022/01/10 01:35:45;;;;;;;49.20;24.02;;;1.90;65.70;;;;;;5048196;28;20386;-67
2022/01/10 01:38:11;;;;;;;57.70;27.27;;;1.80;65.30;;;;;;5030922;28;20047;-68
2022/01/10 01:43:28;;;;;;;62.42;28.60;;;1.80;66.00;;;;;;5049023;28;20391;-68
2022/01/10 01:46:05;;;;;;;53.80;26.48;;;1.80;66.00;;;;;;5047999;28;20032;-69
2022/01/10 01:48:31;;;;;;;51.88;25.45;;;1.80;66.20;;;;;;5047831;28;20048;-68
2022/01/10 01:51:17;;;;;;;62.90;27.92;;;1.80;66.40;;;;;;5049543;28;20036;-68
2022/01/10 01:54:13;;;;;;;53.70;27.55;;;1.70;66.30;;;;;;5034298;28;20045;-71
2022/01/10 01:56:48;;;;;;;50.72;25.38;;;1.70;66.60;;;;;;5048142;28;20382;-70
2022/01/10 01:59:17;;;;;;;50.58;25.33;;;1.60;66.70;;;;;;5047249;28;20052;-70
2022/01/10 02:01:45;;;;;;;51.90;24.90;;;1.60;66.10;;;;;;5046808;28;20465;-68
2022/01/10 02:04:11;;;;;;;47.40;24.90;;;1.60;66.80;;;;;;5048845;28;20428;-68
2022/01/10 02:06:42;;;;;;;;;;;1.60;66.90;;;;;;5064997;28;20029;-68
2022/01/10 02:09:50;;;;;;;49.45;24.15;;;1.60;66.60;;;;;;5049089;28;20341;-68
2022/01/10 02:12:18;;;;;;;52.00;23.90;;;1.50;66.70;;;;;;5030814;28;20413;-67
2022/01/10 02:14:50;;;;;;;49.38;23.73;;;1.50;66.90;;;;;;5049258;28;20418;-68
2022/01/10 02:17:33;;;;;;;49.38;22.45;;;1.40;67.00;;;;;;5047064;28;20033;-68
2022/01/10 02:20:03;;;;;;;45.80;22.42;;;1.40;66.70;;;;;;5047503;28;20087;-69
2022/01/10 02:22:46;;;;;;;47.42;22.50;;;1.40;67.30;;;;;;5063923;28;20124;-67
2022/01/10 02:25:15;;;;;;;49.50;23.05;;;1.30;67.50;;;;;;5046240;28;20036;-68
2022/01/10 02:27:45;;;;;;;48.72;22.67;;;1.40;67.60;;;;;;5047341;28;20044;-67
2022/01/10 02:30:15;;;;;;;46.63;23.65;;;1.30;67.90;;;;;;5048495;28;20036;-68
2022/01/10 02:33:02;;;;;;;49.95;23.13;;;1.30;67.80;;;;;;5049189;28;20037;-68
2022/01/10 02:35:35;;;;;;;46.72;21.55;;;1.30;67.80;;;;;;5047053;28;20597;-71
2022/01/10 02:38:02;;;;;;;45.08;21.35;;;1.40;67.70;;;;;;5063420;28;20124;-71
2022/01/10 02:40:32;;;;;;;51.97;22.85;;;1.30;67.20;;;;;;5047277;28;20128;-68
2022/01/10 02:43:00;;;;;;;45.33;21.33;;;1.30;67.90;;;;;;5063795;28;20044;-67
2022/01/10 02:45:46;;;;;;;50.17;22.17;;;1.30;67.80;;;;;;5049833;28;20074;-67
2022/01/10 02:48:15;;;;;;;49.17;22.48;;;1.40;67.50;;;;;;5051979;28;20374;-67
2022/01/10 02:50:52;;;;;;;49.55;24.48;;;1.40;67.20;;;;;;5051281;28;20041;-67
2022/01/10 02:53:18;;;;;;;51.45;25.08;;;1.40;67.60;;;;;;5049578;28;20040;-68
2022/01/10 02:55:45;;;;;;;;;;;1.50;68.50;;;;;;5051274;28;20065;-67
2022/01/10 02:58:18;;;;;;;72.00;31.55;;;1.50;67.50;;;;;;5050694;28;19974;-68
2022/01/10 03:00:44;;;;;;;65.45;30.92;;;1.50;67.50;;;;;;5051775;28;20056;-67
2022/01/10 03:03:13;;;;;;;53.85;25.13;;;1.50;67.50;;;;;;5034696;28;20034;-67
2022/01/10 03:05:41;;;;;;;53.97;24.02;;;1.50;67.60;;;;;;5052749;28;20041;-68
2022/01/10 03:08:07;;;;;;;50.00;22.92;;;1.50;67.70;;;;;;5034050;28;20416;-68
2022/01/10 03:10:36;;;;;;;48.00;23.05;;;1.50;67.90;;;;;;5050252;28;20033;-68
2022/01/10 03:13:04;;;;;;;49.35;22.92;;;1.40;68.00;;;;;;5051385;28;20119;-67
2022/01/10 03:15:30;;;;;;;51.47;22.73;;;1.40;67.90;;;;;;5034256;28;20048;-68
2022/01/10 03:18:06;;;;;;;44.72;22.30;;;1.40;67.90;;;;;;5050519;28;20446;-69
2022/01/10 03:20:40;;;;;;;51.35;23.83;;;1.40;68.10;;;;;;5051321;28;20041;-67
2022/01/10 03:23:11;;;;;;;42.67;21.20;;;1.40;68.00;;;;;;5047206;28;20053;-71
2022/01/10 03:25:39;;;;;;;49.38;22.60;;;1.50;68.10;;;;;;5049963;28;20033;-68
2022/01/10 03:28:06;;;;;;;45.30;21.75;;;1.50;68.00;;;;;;5051386;28;20025;-68
2022/01/10 03:30:34;;;;;;;54.45;22.60;;;1.50;68.00;;;;;;5033516;28;20041;-67
2022/01/10 03:33:02;;;;;;;49.95;22.98;;;1.50;67.90;;;;;;5050567;28;20033;-67
2022/01/10 03:35:31;;;;;;;52.28;23.33;;;1.50;68.00;;;;;;5051230;28;20045;-67
2022/01/10 03:37:58;;;;;;;50.05;21.83;;;1.50;67.90;;;;;;5051215;28;20029;-68
2022/01/10 03:40:30;;;;;;;43.00;21.33;;;1.50;68.10;;;;;;5048817;28;20387;-68
2022/01/10 03:42:56;;;;;;;48.63;22.20;;;1.50;68.00;;;;;;5051147;28;20132;-69
2022/01/10 03:45:28;;;;;;;49.55;21.75;;;1.50;68.00;;;;;;5049953;28;20029;-68
2022/01/10 03:47:54;;;;;;;47.17;21.77;;;1.50;67.80;;;;;;5016593;28;20124;-67
2022/01/10 03:50:23;;;;;;;45.20;22.30;;;1.50;68.00;;;;;;5049087;28;20037;-68
2022/01/10 03:52:53;;;;;;;44.88;22.10;;;1.50;67.90;;;;;;5050785;28;20086;-68
2022/01/10 03:55:27;;;;;;;50.00;22.30;;;1.50;68.10;;;;;;5049390;28;20095;-68
2022/01/10 03:57:57;;;;;;;50.97;22.95;;;1.50;68.20;;;;;;5050859;28;20060;-69
2022/01/10 04:00:23;;;;;;;56.53;23.33;;;1.50;68.10;;;;;;5049498;28;20485;-70
2022/01/10 04:02:58;;;;;;;47.05;22.17;;;1.50;68.20;;;;;;5049760;28;20421;-69
2022/01/10 04:05:35;;;;;;;46.03;22.00;;;1.40;67.70;;;;;;5050800;28;20049;-70
2022/01/10 04:08:02;;;;;;;;;;;1.40;68.60;;;;;;5049631;28;20771;-69
2022/01/10 04:10:36;;;;;;;49.63;21.27;;;1.40;68.30;;;;;;5065866;28;20400;-69
2022/01/10 04:13:35;;;;;;;79.22;33.67;;;1.40;68.20;;;;;;5049040;28;20140;-70
2022/01/10 04:16:01;;;;;;;50.90;24.52;;;1.40;68.20;;;;;;5048118;28;20067;-70
2022/01/10 04:18:39;;;;;;;50.90;24.98;;;1.40;67.90;;;;;;5047786;28;20555;-70
2022/01/10 04:21:20;;;;;;;49.80;23.27;;;1.40;68.50;;;;;;5048584;28;20036;-69
2022/01/10 04:23:49;;;;;;;48.25;21.50;;;1.40;68.60;;;;;;5051427;28;20669;-69
2022/01/10 04:26:26;;;;;;;47.15;22.80;;;1.40;68.40;;;;;;5053799;28;20075;-68
2022/01/10 04:28:54;;;;;;;54.50;24.95;;;1.40;68.70;;;;;;5052847;28;20385;-70
2022/01/10 04:31:20;;;;;;;44.33;20.67;;;1.40;68.60;;;;;;5069989;28;20449;-70
2022/01/10 04:33:54;;;;;;;53.58;23.08;;;1.40;68.50;;;;;;5053157;28;20044;-69
2022/01/10 04:36:42;;;;;;;49.25;22.58;;;1.30;68.80;;;;;;5053164;28;20037;-70
2022/01/10 04:39:12;;;;;;;49.72;22.52;;;1.30;69.20;;;;;;5052427;28;20027;-69
2022/01/10 04:41:39;;;;;;;48.75;23.45;;;1.30;68.90;;;;;;5070311;28;20068;-69
2022/01/10 04:44:07;;;;;;;48.53;22.80;;;1.30;69.00;;;;;;5051902;28;20063;-70
2022/01/10 04:46:37;;;;;;;43.38;20.40;;;1.30;68.90;;;;;;5069831;28;20120;-70
2022/01/10 04:49:06;;;;;;;48.38;22.27;;;1.30;68.60;;;;;;5069702;28;20083;-69
2022/01/10 04:51:38;;;;;;;44.97;21.75;;;1.40;68.90;;;;;;5053107;28;20037;-69
2022/01/10 04:54:04;;;;;;;42.95;20.55;;;1.30;69.00;;;;;;5069950;28;20033;-69
2022/01/10 04:56:43;;;;;;;45.15;21.02;;;1.40;69.20;;;;;;5069391;28;20044;-70
2022/01/10 04:59:14;;;;;;;45.35;21.48;;;1.40;68.90;;;;;;5052608;28;20032;-70
2022/01/10 05:01:40;;;;;;;45.50;21.63;;;1.40;68.80;;;;;;5051713;28;20493;-69
2022/01/10 05:04:19;;;;;;;44.13;21.98;;;1.50;68.90;;;;;;5061171;28;20028;-70
2022/01/10 05:06:48;;;;;;;50.63;21.95;;;1.50;68.90;;;;;;5068976;28;20055;-70
2022/01/10 05:09:21;;;;;;;45.05;20.67;;;1.40;69.10;;;;;;5052808;28;20132;-70
2022/01/10 05:11:47;;;;;;;45.85;21.60;;;1.50;69.20;;;;;;5051914;28;20020;-70
2022/01/10 05:14:27;;;;;;;49.85;23.95;;;1.40;69.30;;;;;;5069232;28;20045;-69
2022/01/10 05:17:18;;;;;;;53.50;23.93;;;1.40;69.40;;;;;;5020683;28;20052;-70
2022/01/10 05:20:06;;;;;;;52.28;23.90;;;1.40;69.20;;;;;;5067945;28;20457;-69
2022/01/10 05:22:40;;;;;;;54.95;26.80;;;1.40;69.20;;;;;;5051171;28;20045;-69
2022/01/10 05:25:07;;;;;;;47.40;23.52;;;1.40;69.20;;;;;;5069063;28;20039;-69
2022/01/10 05:27:33;;;;;;;;;;;1.50;69.30;;;;;;5069667;28;20040;-70
2022/01/10 05:30:30;;;;;;;50.35;23.13;;;1.50;69.10;;;;;;5035088;28;20388;-70
2022/01/10 05:33:20;;;;;;;52.95;25.20;;;1.50;68.70;;;;;;5057644;28;20068;-71
2022/01/10 05:35:46;;;;;;;50.50;23.65;;;1.50;68.90;;;;;;5047846;28;20106;-69
2022/01/10 05:38:27;;;;;;;53.60;25.65;;;1.50;68.90;;;;;;5064636;28;20128;-70
2022/01/10 05:40:53;;;;;;;66.07;28.33;;;1.50;68.80;;;;;;5067888;28;20036;-69
2022/01/10 05:43:22;;;;;;;57.30;24.27;;;1.60;69.00;;;;;;5068654;28;20040;-70
2022/01/10 05:46:02;;;;;;;57.78;25.27;;;1.60;69.00;;;;;;5034805;28;20103;-69
2022/01/10 05:48:59;;;;;;;56.25;25.20;;;1.70;69.20;;;;;;5060699;28;20041;-69
2022/01/10 05:51:34;;;;;;;50.03;24.58;;;1.70;68.80;;;;;;5031894;28;20122;-69
2022/01/10 05:54:20;;;;;;;48.75;22.70;;;1.70;68.70;;;;;;5032463;28;21412;-70
2022/01/10 05:56:46;;;;;;;46.40;22.50;;;1.60;69.00;;;;;;5047550;28;20060;-69
2022/01/10 05:59:14;;;;;;;46.50;24.00;;;1.70;69.20;;;;;;5049088;28;20029;-70
2022/01/10 06:01:42;;;;;;;43.13;22.83;;;1.70;69.00;;;;;;5047762;28;20498;-70
2022/01/10 06:04:09;;;;;;;41.38;20.67;;;1.70;69.10;;;;;;5047801;28;20033;-70
2022/01/10 06:06:35;;;;;;;41.13;20.92;;;1.70;68.50;;;;;;5048890;28;20037;-70
2022/01/10 06:09:20;;;;;;;46.75;21.17;;;1.70;69.30;;;;;;5031402;28;20082;-70
2022/01/10 06:11:46;;;;;;;49.88;21.77;;;1.60;69.30;;;;;;5048959;28;20033;-69
2022/01/10 06:14:13;;;;;;;41.28;21.45;;;1.70;69.20;;;;;;5048807;28;20057;-70
2022/01/10 06:16:57;;;;;;;43.78;20.65;;;1.70;69.00;;;;;;5031086;28;20068;-69
2022/01/10 06:19:26;;;;;;;49.63;22.08;;;1.70;69.30;;;;;;5049754;28;20037;-70
2022/01/10 06:22:04;;;;;;;37.35;19.42;;;1.70;69.20;;;;;;5052187;28;20096;-69
2022/01/10 06:24:30;;;;;;;49.03;22.85;;;1.70;68.70;;;;;;5049441;28;20424;-69
2022/01/10 06:27:04;;;;;;;50.08;25.05;;;1.70;69.30;;;;;;5051942;28;20041;-70
2022/01/10 06:29:33;;;;;;;52.45;23.00;;;1.70;69.10;;;;;;5052427;28;20044;-70
2022/01/10 06:32:04;;;;;;;46.78;22.45;;;1.70;69.20;;;;;;5052091;28;20037;-69
2022/01/10 06:34:30;;;;;;;48.20;24.00;;;1.80;69.10;;;;;;5052299;28;20107;-70
2022/01/10 06:36:59;;;;;;;57.55;24.63;;;1.70;69.20;;;;;;5048096;28;20041;-71
2022/01/10 06:39:27;;;;;;;51.83;23.50;;;1.70;69.30;;;;;;5050645;28;20060;-71
2022/01/10 06:42:24;;;;;;;50.30;24.70;;;1.70;68.90;;;;;;5052730;28;20091;-70
2022/01/10 06:44:50;;;;;;;51.13;25.75;;;1.70;69.40;;;;;;5035296;28;20154;-69
2022/01/10 06:47:19;;;;;;;;;;;1.70;68.70;;;;;;5051280;28;20044;-70
2022/01/10 06:49:45;;;;;;;52.42;23.55;;;1.70;69.20;;;;;;5050699;28;20305;-68
2022/01/10 06:52:14;;;;;;;46.30;22.10;;;1.70;69.30;;;;;;5050695;28;20112;-69
2022/01/10 06:55:00;;;;;;;48.03;21.25;;;1.60;69.20;;;;;;5066629;28;20033;-71
2022/01/10 06:57:26;;;;;;;45.70;21.00;;;1.60;69.30;;;;;;5037626;28;20040;-69
2022/01/10 06:59:52;;;;;;;;;;;1.70;69.60;;;;;;5051978;28;20382;-70
2022/01/10 07:02:36;;;;;;;42.60;20.55;;;1.70;69.50;;;;;;5050774;28;19921;-71
2022/01/10 07:05:06;;;;;;;39.45;20.10;;;1.70;69.50;;;;;;5051658;28;20737;-70
2022/01/10 07:07:54;;;;;;;55.42;21.77;;;1.70;69.40;;;;;;5051764;28;20139;-70
2022/01/10 07:10:21;;;;;;;50.70;22.27;;;1.80;69.40;;;;;;5051152;28;20033;-71
2022/01/10 07:12:59;;;;;;;45.15;21.50;;;1.70;69.40;;;;;;5067087;28;20576;-69
2022/01/10 07:15:40;;;;;;;47.95;22.45;;;1.70;69.50;;;;;;5034409;28;20425;-71
2022/01/10 07:18:32;;;;;;;46.08;21.45;;;1.70;69.60;;;;;;5031580;28;20039;-70
2022/01/10 07:20:59;;;;;;;49.40;23.10;;;1.80;69.40;;;;;;5031478;28;20057;-71
2022/01/10 07:24:08;;;;;;;49.03;22.50;;;1.80;69.50;;;;;;5051723;28;20061;-69
2022/01/10 07:26:35;;;;;;;50.63;25.33;;;1.80;69.40;;;;;;5071281;28;20040;-71
2022/01/10 07:29:04;;;;;;;63.92;27.95;;;1.80;69.30;;;;;;5055272;28;20120;-70
2022/01/10 07:31:35;;;;;;;183.63;63.10;;;1.90;69.40;;;;;;5032905;28;20037;-71
2022/01/10 07:34:03;;;;;;;248.68;86.55;;;1.90;69.60;;;;;;5033087;28;20490;-69
2022/01/10 07:36:29;;;;;;;163.80;61.08;;;1.80;69.50;;;;;;5037908;28;20036;-69
2022/01/10 07:38:58;;;;;;;87.97;36.05;;;1.90;69.20;;;;;;5053895;28;20021;-69
2022/01/10 07:41:52;;;;;;;86.40;35.17;;;1.90;69.70;;;;;;5034615;28;20077;-70
2022/01/10 07:44:23;;;;;;;71.80;34.90;;;2.00;69.50;;;;;;5069115;28;20102;-70
2022/01/10 07:47:08;;;;;;;76.20;33.38;;;2.00;69.50;;;;;;5033455;28;20037;-70
2022/01/10 07:49:52;;;;;;;68.22;31.15;;;2.00;69.50;;;;;;5036376;28;20105;-70
2022/01/10 07:52:19;;;;;;;62.70;27.98;;;2.00;69.50;;;;;;5052008;28;20036;-70
2022/01/10 07:54:48;;;;;;;58.25;27.52;;;2.00;70.20;;;;;;5037253;28;20435;-71
2022/01/10 07:57:14;;;;;;;75.70;31.85;;;2.10;69.30;;;;;;5070515;28;20119;-69
2022/01/10 07:59:40;;;;;;;91.15;41.25;;;2.00;69.60;;;;;;5053467;28;20039;-70
2022/01/10 08:02:10;;;;;;;90.10;41.55;;;2.00;69.70;;;;;;5070287;28;20037;-69
2022/01/10 08:04:38;;;;;;;73.25;30.70;;;2.00;69.50;;;;;;5032696;28;20079;-70
2022/01/10 08:07:04;;;;;;;67.93;31.50;;;2.00;69.60;;;;;;5069218;28;20512;-69
2022/01/10 08:09:39;;;;;;;53.05;25.23;;;2.00;70.50;;;;;;5052321;28;20044;-71
2022/01/10 08:12:16;;;;;;;71.28;32.20;;;2.00;69.10;;;;;;5052905;28;20086;-70
2022/01/10 08:14:52;;;;;;;63.33;30.58;;;2.00;69.80;;;;;;5069525;28;20056;-69
2022/01/10 08:17:27;;;;;;;61.03;29.90;;;2.10;69.50;;;;;;5018871;28;20040;-69
2022/01/10 08:20:01;;;;;;;78.63;34.17;;;2.10;69.60;;;;;;5069203;28;20041;-70
2022/01/10 08:22:55;;;;;;;59.15;30.40;;;2.10;69.70;;;;;;5068933;28;20052;-70
2022/01/10 08:25:24;;;;;;;60.83;29.70;;;2.10;69.60;;;;;;5035089;28;20067;-70
2022/01/10 08:27:52;;;;;;;55.85;25.20;;;2.20;69.50;;;;;;5070089;28;20058;-70
2022/01/10 08:30:36;;;;;;;54.85;26.17;;;2.20;69.50;;;;;;5054965;28;20115;-70
2022/01/10 08:33:02;;;;;;;54.90;26.85;;;2.20;69.60;;;;;;5052636;28;20024;-71
2022/01/10 08:36:02;;;;;;;62.63;28.55;;;2.20;69.40;;;;;;5069928;28;20041;-70
2022/01/10 08:38:28;;;;;;;66.72;31.05;;;2.30;69.50;;;;;;5052052;28;20459;-70
2022/01/10 08:40:59;;;;;;;65.75;30.40;;;2.40;69.30;;;;;;5052224;28;20047;-70
2022/01/10 08:43:27;;;;;;;64.72;28.65;;;2.40;69.10;;;;;;5051020;28;20075;-69
2022/01/10 08:45:55;;;;;;;53.72;26.17;;;2.40;69.30;;;;;;5070017;28;20029;-70
2022/01/10 08:48:23;;;;;;;60.15;27.13;;;2.40;69.30;;;;;;5069493;28;20071;-70
2022/01/10 08:51:11;;;;;;;46.45;23.20;;;2.40;69.40;;;;;;5069928;28;20497;-70
2022/01/10 08:53:42;;;;;;;52.60;25.38;;;2.30;69.10;;;;;;5070083;28;20045;-70
2022/01/10 08:56:19;;;;;;;49.50;25.35;;;2.30;69.80;;;;;;5069531;28;20040;-71
2022/01/10 08:58:53;;;;;;;;;;;2.40;69.60;;;;;;5034581;28;20091;-69
2022/01/10 09:01:22;;;;;;;50.22;22.10;;;2.40;69.60;;;;;;5065873;28;19928;-70
2022/01/10 09:03:51;;;;;;;52.00;24.65;;;2.30;69.50;;;;;;5051534;28;20091;-69
2022/01/10 09:06:17;;;;;;;55.75;24.83;;;2.40;69.60;;;;;;5069689;28;20037;-70
2022/01/10 09:09:29;;;;;;;55.45;26.77;;;2.40;69.50;;;;;;5069739;28;20039;-70
2022/01/10 09:11:55;;;;;;;62.50;27.65;;;2.50;69.60;;;;;;5031330;28;20037;-70
2022/01/10 09:14:57;;;;;;;56.58;25.67;;;2.50;69.70;;;;;;5055100;28;20049;-71
2022/01/10 09:17:23;;;;;;;61.88;27.38;;;2.60;69.60;;;;;;5046826;28;20127;-71
2022/01/10 09:19:51;;;;;;;63.08;28.60;;;2.60;69.50;;;;;;5050959;28;20402;-69
2022/01/10 09:22:25;;;;;;;59.80;27.88;;;2.60;69.30;;;;;;5029570;28;20505;-71
2022/01/10 09:25:00;;;;;;;58.70;25.83;;;2.70;69.10;;;;;;5042736;28;20441;-70
2022/01/10 09:27:27;;;;;;;53.42;26.75;;;2.80;69.10;;;;;;5047886;28;20064;-69
2022/01/10 09:30:00;;;;;;;59.38;27.90;;;2.80;68.80;;;;;;5047225;28;20025;-71
2022/01/10 09:32:28;;;;;;;61.10;28.92;;;2.90;69.00;;;;;;5031928;28;20103;-70
2022/01/10 09:34:54;;;;;;;51.33;27.90;;;2.90;68.90;;;;;;5049187;28;20087;-70
2022/01/10 09:37:35;;;;;;;62.80;28.15;;;3.00;68.80;;;;;;5047510;28;20041;-71
2022/01/10 09:40:02;;;;;;;61.70;29.52;;;3.00;68.70;;;;;;5031999;28;20382;-70
2022/01/10 09:42:30;;;;;;;57.60;27.80;;;3.00;68.00;;;;;;5048953;28;20041;-70
2022/01/10 09:45:02;;;;;;;60.47;29.00;;;3.10;68.50;;;;;;5048388;28;20025;-70
2022/01/10 09:47:31;;;;;;;63.75;30.92;;;3.20;68.30;;;;;;5048968;28;20044;-70
2022/01/10 09:50:00;;;;;;;73.55;32.67;;;3.20;68.20;;;;;;5030925;28;20494;-71
2022/01/10 09:52:45;;;;;;;66.75;33.10;;;3.30;68.20;;;;;;5033855;28;20039;-71
2022/01/10 09:55:14;;;;;;;77.25;34.47;;;3.40;67.90;;;;;;5033450;28;20116;-70
2022/01/10 09:58:13;;;;;;;68.13;31.70;;;3.40;68.00;;;;;;5044851;28;20513;-70
2022/01/10 10:00:48;;;;;;;75.38;32.20;;;3.30;68.10;;;;;;5030210;28;20382;-71
2022/01/10 10:03:42;;;;;;;69.60;30.55;;;3.20;68.30;;;;;;5051634;28;20029;-71
2022/01/10 10:06:09;;;;;;;62.03;30.33;;;3.20;68.50;;;;;;5051737;28;20037;-70
2022/01/10 10:08:39;;;;;;;63.97;30.80;;;3.10;68.70;;;;;;5053260;28;20029;-70
2022/01/10 10:11:46;;;;;;;75.82;31.25;;;3.10;68.60;;;;;;5051528;28;20443;-70
2022/01/10 10:14:17;;;;;;;62.90;31.13;;;3.10;68.80;;;;;;5052948;28;20134;-70
2022/01/10 10:17:12;;;;;;;66.88;31.58;;;3.10;68.60;;;;;;5051635;28;21073;-70
2022/01/10 10:19:39;;;;;;;63.60;32.20;;;3.30;67.90;;;;;;5052798;28;20041;-71
2022/01/10 10:22:05;;;;;;;68.60;32.05;;;3.40;68.00;;;;;;5051266;28;20048;-70
2022/01/10 10:24:47;;;;;;;79.82;32.38;;;3.40;68.00;;;;;;5052591;28;20045;-70
2022/01/10 10:27:20;;;;;;;63.67;31.33;;;3.30;68.20;;;;;;5050177;28;20044;-70
2022/01/10 10:29:48;;;;;;;65.93;32.03;;;3.30;68.10;;;;;;5053093;28;20021;-69
2022/01/10 10:32:15;;;;;;;73.78;32.13;;;3.20;68.30;;;;;;5067761;28;20679;-70
2022/01/10 10:37:59;;;;;;;86.20;38.38;;;3.30;68.50;;;;;;4996415;28;20083;-70
2022/01/10 10:40:56;;;;;;;127.07;51.20;;;3.30;68.30;;;;;;5009928;28;20073;-71
2022/01/10 10:43:23;;;;;;;84.53;37.13;;;3.30;68.20;;;;;;4977280;28;20058;-71
2022/01/10 10:46:00;;;;;;;61.03;32.00;;;3.30;68.50;;;;;;5009828;28;20038;-71
2022/01/10 10:48:39;;;;;;;74.13;34.92;;;3.20;68.30;;;;;;4963496;28;20049;-71
2022/01/10 10:51:08;;;;;;;66.43;32.85;;;3.20;68.70;;;;;;4993992;28;20030;-70
2022/01/10 10:53:34;;;;;;;61.22;30.80;;;3.10;69.10;;;;;;4993423;28;20041;-70
2022/01/10 10:56:04;;;;;;;;;;;3.30;68.90;;;;;;4982847;28;20048;-70
2022/01/10 10:58:31;;;;;;;69.22;31.30;;;3.20;68.50;;;;;;4993210;28;19939;-70
2022/01/10 11:01:00;;;;;;;75.50;34.38;;;3.20;68.00;;;;;;4993668;28;20069;-70
2022/01/10 11:03:42;;;;;;;68.90;32.33;;;3.10;68.90;;;;;;5004779;28;20041;-70
2022/01/10 11:06:11;;;;;;;72.93;33.75;;;3.00;69.00;;;;;;4993163;28;20038;-71
2022/01/10 11:08:41;;;;;;;70.68;32.42;;;3.00;69.10;;;;;;5007535;28;20042;-71
2022/01/10 11:11:20;;;;;;;73.35;31.25;;;3.00;69.10;;;;;;4993413;28;20053;-69
2022/01/10 11:14:00;;;;;;;75.70;31.38;;;3.00;69.10;;;;;;5011559;28;20057;-69
2022/01/10 11:16:27;;;;;;;67.30;32.15;;;3.10;69.10;;;;;;5030494;28;20045;-70
2022/01/10 11:18:55;;;;;;;61.90;30.13;;;3.10;68.50;;;;;;5041259;28;20108;-70
2022/01/10 11:22:12;;;;;;;72.18;34.65;;;3.00;69.20;;;;;;5050294;28;20547;-70
2022/01/10 11:25:36;;;;;;;74.28;34.53;;;2.90;69.60;;;;;;5030380;28;20045;-71
2022/01/10 11:28:31;;;;;;;78.93;36.35;;;2.90;69.40;;;;;;5031117;28;20049;-71
2022/01/10 11:31:08;;;;;;;70.53;33.03;;;3.00;69.20;;;;;;5046190;28;20428;-70
2022/01/10 11:33:45;;;;;;;72.05;33.20;;;3.00;69.10;;;;;;5050147;28;20041;-70
2022/01/10 11:36:36;;;;;;;70.80;33.35;;;2.90;69.60;;;;;;5050089;28;20057;-70
2022/01/10 11:39:21;;;;;;;74.88;33.58;;;2.80;69.70;;;;;;5050442;28;20029;-71
2022/01/10 11:41:48;;;;;;;66.63;32.95;;;2.70;70.20;;;;;;5033585;28;20095;-69
2022/01/10 11:44:14;;;;;;;69.97;32.83;;;2.70;70.50;;;;;;5032448;28;20029;-70
2022/01/10 11:46:59;;;;;;;77.93;34.58;;;2.80;70.20;;;;;;5026532;28;20037;-71
2022/01/10 11:49:46;;;;;;;68.63;33.50;;;2.90;69.80;;;;;;5031186;28;20084;-70
2022/01/10 11:52:15;;;;;;;146.75;57.50;;;3.00;69.60;;;;;;5038617;28;20041;-70
2022/01/10 11:55:07;;;;;;;83.93;40.38;;;3.00;69.30;;;;;;5033260;28;20040;-70
2022/01/10 11:57:36;;;;;;;92.10;42.22;;;3.00;69.40;;;;;;5050785;28;20528;-70
2022/01/10 12:00:39;;;;;;;116.47;47.08;;;3.00;69.30;;;;;;5051508;28;20061;-71
2022/01/10 12:03:33;;;;;;;100.28;40.30;;;3.00;69.40;;;;;;5049634;28;20095;-71
2022/01/10 12:06:00;;;;;;;;;;;3.00;69.40;;;;;;5050068;28;20060;-71
2022/01/10 12:08:38;;;;;;;105.97;43.33;;;3.00;69.20;;;;;;5032064;28;20319;-71
2022/01/10 12:11:08;;;;;;;81.22;35.53;;;3.10;69.30;;;;;;5032477;28;20473;-70
2022/01/10 12:13:37;;;;;;;76.00;34.60;;;3.10;68.80;;;;;;5032576;28;20088;-70
2022/01/10 12:16:09;;;;;;;66.28;31.67;;;3.00;69.70;;;;;;5049324;28;20056;-70
2022/01/10 12:18:41;;;;;;;66.68;30.90;;;2.90;69.80;;;;;;5049141;28;20037;-71
2022/01/10 12:21:09;;;;;;;74.22;34.35;;;2.80;70.10;;;;;;5050986;28;20025;-71
2022/01/10 12:23:36;;;;;;;94.68;40.38;;;2.90;70.10;;;;;;5047996;28;20432;-70
2022/01/10 12:26:10;;;;;;;96.53;43.67;;;2.90;70.10;;;;;;5048896;28;20044;-70
2022/01/10 12:29:07;;;;;;;83.82;37.95;;;2.90;70.00;;;;;;5048901;28;20037;-70
2022/01/10 12:31:37;;;;;;;85.47;39.67;;;2.90;70.10;;;;;;5031438;28;20037;-70
2022/01/10 12:34:05;;;;;;;94.60;40.50;;;3.00;69.80;;;;;;5040950;28;20427;-71
2022/01/10 12:36:38;;;;;;;101.38;43.17;;;3.00;69.50;;;;;;5013842;28;20034;-70
2022/01/10 12:42:17;;;;;;;74.90;34.17;;;3.10;69.60;;;;;;5049822;28;20553;-70
2022/01/10 12:44:43;;;;;;;124.28;49.88;;;3.10;69.70;;;;;;5065901;28;20060;-70
2022/01/10 12:47:09;;;;;;;105.28;44.47;;;3.00;69.60;;;;;;5031523;28;20057;-70
2022/01/10 12:49:41;;;;;;;96.93;43.15;;;3.00;69.80;;;;;;5023299;28;20037;-71
2022/01/10 12:52:07;;;;;;;90.75;40.50;;;3.00;69.90;;;;;;5047946;28;20067;-70
2022/01/10 12:54:34;;;;;;;;;;;3.00;69.90;;;;;;5049039;28;20052;-70
2022/01/10 12:57:03;;;;;;;183.38;72.82;;;3.00;69.30;;;;;;5065537;28;19912;-70
2022/01/10 12:59:37;;;;;;;92.07;42.90;;;3.00;69.70;;;;;;5048763;28;20099;-70
2022/01/10 13:02:06;;;;;;;81.68;37.55;;;3.00;69.90;;;;;;5048224;28;20389;-70
2022/01/10 13:04:41;;;;;;;165.73;60.63;;;2.90;69.90;;;;;;5031705;28;20037;-70
2022/01/10 13:07:17;;;;;;;119.22;49.60;;;2.90;70.30;;;;;;5048278;28;20075;-70
2022/01/10 13:09:58;;;;;;;110.20;46.47;;;3.00;70.30;;;;;;5048403;28;20043;-70
2022/01/10 13:12:28;;;;;;;159.35;63.30;;;3.00;70.20;;;;;;5048318;28;20040;-71
2022/01/10 13:15:15;;;;;;;90.80;40.00;;;3.00;70.10;;;;;;5048847;28;20035;-69
2022/01/10 13:17:55;;;;;;;66.75;32.70;;;2.90;70.30;;;;;;5031905;28;20167;-70
2022/01/10 13:20:24;;;;;;;74.88;32.08;;;2.90;70.30;;;;;;5054467;28;20033;-70
2022/01/10 13:23:18;;;;;;;74.50;32.75;;;2.90;70.40;;;;;;5048023;28;20505;-70
2022/01/10 13:26:10;;;;;;;78.60;33.55;;;2.90;70.50;;;;;;5049254;28;20055;-70
2022/01/10 13:28:55;;;;;;;73.93;33.45;;;2.90;70.40;;;;;;5030917;28;20544;-70
2022/01/10 13:32:15;;;;;;;69.15;32.42;;;2.90;70.50;;;;;;5032096;28;20060;-70
2022/01/10 13:34:58;;;;;;;67.63;32.38;;;2.90;70.30;;;;;;5041129;28;20041;-70